sensor_id;sensor_type;location;lat;lon;timestamp;pressure;altitude;pressure_sealevel;temperature;humidity
44044;BME280;29709;52.396;16.796;2023-01-31T00:03:00;100834.69;;;5.00;74.22
44044;BME280;29709;52.396;16.796;2023-01-31T00:09:19;100843.67;;;4.91;74.20
44044;BME280;29709;52.396;16.796;2023-01-31T00:12:22;100856.43;;;4.90;73.99
44044;BME280;29709;52.396;16.796;2023-01-31T00:15:25;100861.26;;;4.87;73.72
44044;BME280;29709;52.396;16.796;2023-01-31T00:18:53;100873.01;;;4.87;73.72
44044;BME280;29709;52.396;16.796;2023-01-31T00:21:56;100875.59;;;4.89;73.35
44044;BME280;29709;52.396;16.796;2023-01-31T00:24:59;100883.77;;;4.89;73.53
44044;BME280;29709;52.396;16.796;2023-01-31T00:28:03;100894.80;;;4.87;73.51
44044;BME280;29709;52.396;16.796;2023-01-31T00:31:07;100904.68;;;4.88;73.54
44044;BME280;29709;52.396;16.796;2023-01-31T00:34:11;100911.86;;;4.89;73.33
44044;BME280;29709;52.396;16.796;2023-01-31T00:37:14;100894.65;;;4.89;73.57
44044;BME280;29709;52.396;16.796;2023-01-31T00:40:19;100899.14;;;4.90;73.39
44044;BME280;29709;52.396;16.796;2023-01-31T00:43:22;100910.03;;;4.90;73.51
44044;BME280;29709;52.396;16.796;2023-01-31T00:46:25;100928.34;;;4.88;73.34
44044;BME280;29709;52.396;16.796;2023-01-31T00:49:53;100932.33;;;4.84;72.91
44044;BME280;29709;52.396;16.796;2023-01-31T00:52:56;100940.35;;;4.85;73.37
44044;BME280;29709;52.396;16.796;2023-01-31T00:56:06;100943.94;;;4.86;73.33
44044;BME280;29709;52.396;16.796;2023-01-31T00:59:10;100942.48;;;4.82;72.66
44044;BME280;29709;52.396;16.796;2023-01-31T01:02:14;100945.20;;;4.82;72.66
44044;BME280;29709;52.396;16.796;2023-01-31T01:05:17;100955.96;;;4.83;72.95
44044;BME280;29709;52.396;16.796;2023-01-31T01:08:20;100957.56;;;4.86;72.69
44044;BME280;29709;52.396;16.796;2023-01-31T01:11:29;100964.63;;;4.77;71.86
44044;BME280;29709;52.396;16.796;2023-01-31T01:14:57;100976.66;;;4.75;72.70
44044;BME280;29709;52.396;16.796;2023-01-31T01:18:00;100973.53;;;4.79;72.46
44044;BME280;29709;52.396;16.796;2023-01-31T01:21:08;100976.77;;;4.73;72.82
44044;BME280;29709;52.396;16.796;2023-01-31T01:24:18;100974.79;;;4.75;72.71
44044;BME280;29709;52.396;16.796;2023-01-31T01:27:22;100979.50;;;4.73;72.92
44044;BME280;29709;52.396;16.796;2023-01-31T01:30:25;100987.54;;;4.75;72.65
44044;BME280;29709;52.396;16.796;2023-01-31T01:33:30;101002.54;;;4.69;72.78
44044;BME280;29709;52.396;16.796;2023-01-31T01:36:35;101003.03;;;4.63;72.84
44044;BME280;29709;52.396;16.796;2023-01-31T01:40:04;101006.02;;;4.60;72.58
44044;BME280;29709;52.396;16.796;2023-01-31T01:43:10;101022.34;;;4.60;72.67
44044;BME280;29709;52.396;16.796;2023-01-31T01:49:34;101025.07;;;4.60;71.93
44044;BME280;29709;52.396;16.796;2023-01-31T01:52:45;101031.73;;;4.56;71.86
44044;BME280;29709;52.396;16.796;2023-01-31T01:56:22;101040.02;;;4.54;71.74
44044;BME280;29709;52.396;16.796;2023-01-31T01:59:31;101033.10;;;4.61;72.40
44044;BME280;29709;52.396;16.796;2023-01-31T02:02:36;101038.41;;;4.63;71.34
44044;BME280;29709;52.396;16.796;2023-01-31T02:05:47;101048.70;;;4.59;71.52
44044;BME280;29709;52.396;16.796;2023-01-31T02:08:52;101049.44;;;4.61;70.76
44044;BME280;29709;52.396;16.796;2023-01-31T02:11:57;101050.56;;;4.59;70.79
44044;BME280;29709;52.396;16.796;2023-01-31T02:15:01;101058.59;;;4.60;71.84
44044;BME280;29709;52.396;16.796;2023-01-31T02:18:30;101069.84;;;4.56;71.51
44044;BME280;29709;52.396;16.796;2023-01-31T02:37:56;101100.16;;;4.51;70.90
44044;BME280;29709;52.396;16.796;2023-01-31T02:44:22;101095.71;;;4.50;71.34
44044;BME280;29709;52.396;16.796;2023-01-31T02:51:03;101118.22;;;4.52;70.93
44044;BME280;29709;52.396;16.796;2023-01-31T02:54:17;101114.63;;;4.52;70.54
44044;BME280;29709;52.396;16.796;2023-01-31T02:57:24;101121.07;;;4.51;70.73
44044;BME280;29709;52.396;16.796;2023-01-31T03:00:31;101127.98;;;4.55;70.57
44044;BME280;29709;52.396;16.796;2023-01-31T03:03:37;101139.99;;;4.52;70.38
44044;BME280;29709;52.396;16.796;2023-01-31T03:07:09;101116.70;;;4.37;70.41
44044;BME280;29709;52.396;16.796;2023-01-31T03:10:29;101139.99;;;4.52;69.97
44044;BME280;29709;52.396;16.796;2023-01-31T03:16:53;101152.86;;;4.50;69.38
44044;BME280;29709;52.396;16.796;2023-01-31T03:20:17;101150.75;;;4.54;69.25
44044;BME280;29709;52.396;16.796;2023-01-31T03:23:23;101158.67;;;4.57;69.11
44044;BME280;29709;52.396;16.796;2023-01-31T03:26:34;101168.56;;;4.58;69.14
44044;BME280;29709;52.396;16.796;2023-01-31T03:30:10;101167.34;;;4.51;68.89
44044;BME280;29709;52.396;16.796;2023-01-31T03:43:11;101176.64;;;4.59;69.23
44044;BME280;29709;52.396;16.796;2023-01-31T03:46:24;101178.71;;;4.56;69.07
44044;BME280;29709;52.396;16.796;2023-01-31T03:49:30;101183.30;;;4.55;69.10
44044;BME280;29709;52.396;16.796;2023-01-31T03:56:20;101208.38;;;4.48;68.88
44044;BME280;29709;52.396;16.796;2023-01-31T03:59:31;101217.32;;;4.50;68.62
44044;BME280;29709;52.396;16.796;2023-01-31T04:02:37;101214.08;;;4.45;68.28
44044;BME280;29709;52.396;16.796;2023-01-31T04:05:41;101210.73;;;4.41;67.79
44044;BME280;29709;52.396;16.796;2023-01-31T04:09:11;101225.83;;;4.45;68.74
44044;BME280;29709;52.396;16.796;2023-01-31T04:12:15;101228.55;;;4.45;68.48
44044;BME280;29709;52.396;16.796;2023-01-31T04:15:18;101242.52;;;4.41;68.01
44044;BME280;29709;52.396;16.796;2023-01-31T04:18:22;101242.28;;;4.44;67.83
44044;BME280;29709;52.396;16.796;2023-01-31T04:21:25;101236.84;;;4.44;67.61
44044;BME280;29709;52.396;16.796;2023-01-31T04:24:28;101242.40;;;4.42;67.85
44044;BME280;29709;52.396;16.796;2023-01-31T04:27:31;101253.16;;;4.44;68.12
44044;BME280;29709;52.396;16.796;2023-01-31T04:30:34;101252.42;;;4.42;67.57
44044;BME280;29709;52.396;16.796;2023-01-31T04:33:38;101260.59;;;4.42;67.52
44044;BME280;29709;52.396;16.796;2023-01-31T04:36:42;101255.27;;;4.40;67.15
44044;BME280;29709;52.396;16.796;2023-01-31T04:40:10;101271.80;;;4.37;67.46
44044;BME280;29709;52.396;16.796;2023-01-31T04:43:16;101259.84;;;4.40;67.04
44044;BME280;29709;52.396;16.796;2023-01-31T04:46:19;101273.33;;;4.41;66.92
44044;BME280;29709;52.396;16.796;2023-01-31T04:49:23;101269.00;;;4.39;67.24
44044;BME280;29709;52.396;16.796;2023-01-31T04:52:26;101267.88;;;4.41;66.66
44044;BME280;29709;52.396;16.796;2023-01-31T04:55:29;101275.93;;;4.43;67.46
44044;BME280;29709;52.396;16.796;2023-01-31T04:58:32;101292.26;;;4.43;67.05
44044;BME280;29709;52.396;16.796;2023-01-31T05:01:35;101293.37;;;4.40;67.57
44044;BME280;29709;52.396;16.796;2023-01-31T05:04:38;101291.84;;;4.36;66.40
44044;BME280;29709;52.396;16.796;2023-01-31T05:07:43;101304.25;;;4.40;66.60
44044;BME280;29709;52.396;16.796;2023-01-31T05:11:12;101313.49;;;4.38;67.33
44044;BME280;29709;52.396;16.796;2023-01-31T05:14:16;101312.63;;;4.37;66.54
44044;BME280;29709;52.396;16.796;2023-01-31T05:17:22;101311.19;;;4.44;67.00
44044;BME280;29709;52.396;16.796;2023-01-31T05:20:33;101325.78;;;4.43;67.18
44044;BME280;29709;52.396;16.796;2023-01-31T05:23:39;101327.64;;;4.43;67.22
44044;BME280;29709;52.396;16.796;2023-01-31T05:26:43;101322.08;;;4.44;67.02
44044;BME280;29709;52.396;16.796;2023-01-31T05:29:46;101322.08;;;4.44;67.32
44044;BME280;29709;52.396;16.796;2023-01-31T05:32:49;101326.23;;;4.37;67.06
44044;BME280;29709;52.396;16.796;2023-01-31T05:36:18;101342.17;;;4.30;67.26
44044;BME280;29709;52.396;16.796;2023-01-31T05:39:21;101345.77;;;4.31;66.85
44044;BME280;29709;52.396;16.796;2023-01-31T05:42:25;101340.56;;;4.28;66.66
44044;BME280;29709;52.396;16.796;2023-01-31T05:45:29;101335.33;;;4.25;66.93
44044;BME280;29709;52.396;16.796;2023-01-31T05:48:32;101337.54;;;4.20;66.61
44044;BME280;29709;52.396;16.796;2023-01-31T05:51:35;101350.16;;;4.21;66.87
44044;BME280;29709;52.396;16.796;2023-01-31T05:54:39;101348.53;;;4.18;67.02
44044;BME280;29709;52.396;16.796;2023-01-31T05:57:42;101349.40;;;4.19;67.15
44044;BME280;29709;52.396;16.796;2023-01-31T06:00:45;101348.29;;;4.21;67.57
44044;BME280;29709;52.396;16.796;2023-01-31T06:03:49;101354.73;;;4.20;67.87
44044;BME280;29709;52.396;16.796;2023-01-31T06:07:17;101359.74;;;4.14;68.17
44044;BME280;29709;52.396;16.796;2023-01-31T06:10:20;101362.82;;;4.09;68.72
44044;BME280;29709;52.396;16.796;2023-01-31T06:13:24;101369.75;;;4.13;69.03
44044;BME280;29709;52.396;16.796;2023-01-31T06:16:27;101369.63;;;4.15;69.30
44044;BME280;29709;52.396;16.796;2023-01-31T06:19:30;101377.59;;;4.18;69.29
44044;BME280;29709;52.396;16.796;2023-01-31T06:22:34;101380.75;;;4.12;69.73
44044;BME280;29709;52.396;16.796;2023-01-31T06:25:38;101389.27;;;4.07;70.06
44044;BME280;29709;52.396;16.796;2023-01-31T06:28:41;101389.27;;;4.07;70.37
44044;BME280;29709;52.396;16.796;2023-01-31T06:31:44;101391.11;;;4.07;70.38
44044;BME280;29709;52.396;16.796;2023-01-31T06:34:48;101395.88;;;4.03;70.93
44044;BME280;29709;52.396;16.796;2023-01-31T06:38:17;101404.40;;;3.98;70.98
44044;BME280;29709;52.396;16.796;2023-01-31T06:41:21;101410.48;;;4.02;71.17
44044;BME280;29709;52.396;16.796;2023-01-31T06:44:24;101408.62;;;4.02;71.03
44044;BME280;29709;52.396;16.796;2023-01-31T06:47:28;101407.75;;;4.02;71.05
44044;BME280;29709;52.396;16.796;2023-01-31T06:50:31;101419.96;;;3.96;71.57
44044;BME280;29709;52.396;16.796;2023-01-31T06:53:34;101424.42;;;3.97;71.30
44044;BME280;29709;52.396;16.796;2023-01-31T06:56:37;101424.42;;;3.97;71.45
44044;BME280;29709;52.396;16.796;2023-01-31T06:59:42;101422.45;;;3.99;71.41
44044;BME280;29709;52.396;16.796;2023-01-31T07:02:45;101427.77;;;4.01;71.29
44044;BME280;29709;52.396;16.796;2023-01-31T07:05:49;101432.58;;;3.97;71.72
44044;BME280;29709;52.396;16.796;2023-01-31T07:09:17;101437.23;;;3.95;71.53
44044;BME280;29709;52.396;16.796;2023-01-31T07:12:20;101430.52;;;3.88;71.78
44044;BME280;29709;52.396;16.796;2023-01-31T07:15:24;101440.84;;;3.83;71.84
44044;BME280;29709;52.396;16.796;2023-01-31T07:18:27;101439.97;;;3.83;71.81
44044;BME280;29709;52.396;16.796;2023-01-31T07:21:30;101449.86;;;3.84;71.71
44044;BME280;29709;52.396;16.796;2023-01-31T07:24:37;101453.38;;;3.86;71.75
44044;BME280;29709;52.396;16.796;2023-01-31T07:27:40;101465.54;;;3.80;71.69
44044;BME280;29709;52.396;16.796;2023-01-31T07:30:43;101471.96;;;3.79;72.04
44044;BME280;29709;52.396;16.796;2023-01-31T07:33:49;101467.38;;;3.80;72.01
44044;BME280;29709;52.396;16.796;2023-01-31T07:37:20;101463.16;;;3.75;72.07
44044;BME280;29709;52.396;16.796;2023-01-31T07:40:23;101467.70;;;3.75;72.43
44044;BME280;29709;52.396;16.796;2023-01-31T07:43:27;101457.05;;;3.72;72.21
44044;BME280;29709;52.396;16.796;2023-01-31T07:46:30;101465.11;;;3.86;72.13
44044;BME280;29709;52.396;16.796;2023-01-31T07:49:33;101467.38;;;3.80;72.20
44044;BME280;29709;52.396;16.796;2023-01-31T07:52:36;101465.76;;;3.77;72.49
44044;BME280;29709;52.396;16.796;2023-01-31T07:55:40;101462.59;;;3.83;72.18
44044;BME280;29709;52.396;16.796;2023-01-31T07:58:44;101478.25;;;3.92;72.33
44044;BME280;29709;52.396;16.796;2023-01-31T08:01:48;101460.20;;;3.91;71.95
44044;BME280;29709;52.396;16.796;2023-01-31T08:05:28;101471.08;;;3.91;72.04
44044;BME280;29709;52.396;16.796;2023-01-31T08:08:32;101475.98;;;3.99;72.19
44044;BME280;29709;52.396;16.796;2023-01-31T08:11:35;101468.03;;;4.09;71.75
44044;BME280;29709;52.396;16.796;2023-01-31T08:14:38;101477.70;;;4.13;71.68
44044;BME280;29709;52.396;16.796;2023-01-31T08:17:41;101483.77;;;4.16;71.72
44044;BME280;29709;52.396;16.796;2023-01-31T08:20:45;101473.88;;;4.15;71.22
44044;BME280;29709;52.396;16.796;2023-01-31T08:23:48;101487.29;;;4.18;71.53
44044;BME280;29709;52.396;16.796;2023-01-31T08:26:51;101489.43;;;4.26;71.31
44044;BME280;29709;52.396;16.796;2023-01-31T08:29:54;101488.24;;;4.30;71.25
44044;BME280;29709;52.396;16.796;2023-01-31T08:33:26;101502.95;;;4.27;71.26
44044;BME280;29709;52.396;16.796;2023-01-31T08:36:30;101495.86;;;4.25;70.64
44044;BME280;29709;52.396;16.796;2023-01-31T08:39:38;101502.81;;;4.16;71.04
44044;BME280;29709;52.396;16.796;2023-01-31T08:42:42;101503.05;;;4.13;71.25
44044;BME280;29709;52.396;16.796;2023-01-31T08:45:45;101508.18;;;4.18;71.48
44044;BME280;29709;52.396;16.796;2023-01-31T08:48:49;101508.48;;;4.26;71.35
44044;BME280;29709;52.396;16.796;2023-01-31T08:51:52;101495.07;;;4.35;71.22
44044;BME280;29709;52.396;16.796;2023-01-31T08:54:55;101495.07;;;4.35;71.08
44044;BME280;29709;52.396;16.796;2023-01-31T08:57:58;101500.32;;;4.39;71.40
44044;BME280;29709;52.396;16.796;2023-01-31T09:01:29;101499.34;;;4.40;71.68
44044;BME280;29709;52.396;16.796;2023-01-31T09:04:36;101510.20;;;4.52;71.71
44044;BME280;29709;52.396;16.796;2023-01-31T09:07:40;101499.62;;;4.60;71.23
44044;BME280;29709;52.396;16.796;2023-01-31T09:13:58;101505.38;;;4.56;71.39
44044;BME280;29709;52.396;16.796;2023-01-31T09:17:01;101509.28;;;4.64;71.34
44044;BME280;29709;52.396;16.796;2023-01-31T09:20:06;101511.20;;;4.75;70.99
44044;BME280;29709;52.396;16.796;2023-01-31T09:23:38;101513.07;;;4.75;70.72
44044;BME280;29709;52.396;16.796;2023-01-31T09:26:41;101504.78;;;4.76;70.99
44044;BME280;29709;52.396;16.796;2023-01-31T09:29:45;101514.55;;;4.91;70.90
44044;BME280;29709;52.396;16.796;2023-01-31T09:32:48;101521.91;;;5.02;71.14
44044;BME280;29709;52.396;16.796;2023-01-31T09:36:01;101522.97;;;5.12;69.87
44044;BME280;29709;52.396;16.796;2023-01-31T09:39:05;101517.40;;;5.14;70.26
44044;BME280;29709;52.396;16.796;2023-01-31T09:45:49;101533.45;;;5.06;69.95
44044;BME280;29709;52.396;16.796;2023-01-31T09:48:55;101519.83;;;5.06;69.57
44044;BME280;29709;52.396;16.796;2023-01-31T09:52:02;101526.26;;;5.05;69.89
44044;BME280;29709;52.396;16.796;2023-01-31T09:55:14;101527.12;;;5.05;69.91
44044;BME280;29709;52.396;16.796;2023-01-31T10:02:13;101515.78;;;5.11;70.12
44044;BME280;29709;52.396;16.796;2023-01-31T10:11:58;101505.51;;;5.15;68.91
44044;BME280;29709;52.396;16.796;2023-01-31T10:15:38;101503.83;;;5.25;69.22
44044;BME280;29709;52.396;16.796;2023-01-31T10:18:47;101509.32;;;5.36;69.26
44044;BME280;29709;52.396;16.796;2023-01-31T10:22:03;101500.81;;;5.52;68.98
44044;BME280;29709;52.396;16.796;2023-01-31T10:28:35;101497.56;;;5.82;68.42
44044;BME280;29709;52.396;16.796;2023-01-31T10:31:45;101501.27;;;5.81;66.91
44044;BME280;29709;52.396;16.796;2023-01-31T10:35:03;101499.38;;;5.94;68.21
44044;BME280;29709;52.396;16.796;2023-01-31T10:38:19;101491.95;;;6.07;67.31
44044;BME280;29709;52.396;16.796;2023-01-31T10:41:40;101499.00;;;5.99;68.11
44044;BME280;29709;52.396;16.796;2023-01-31T10:44:52;101495.03;;;6.14;67.67
44044;BME280;29709;52.396;16.796;2023-01-31T10:48:03;101480.16;;;6.18;67.84
44044;BME280;29709;52.396;16.796;2023-01-31T10:54:29;101482.89;;;6.07;67.75
44044;BME280;29709;52.396;16.796;2023-01-31T10:57:35;101476.92;;;6.13;67.92
44044;BME280;29709;52.396;16.796;2023-01-31T11:01:07;101472.09;;;5.94;67.79
44044;BME280;29709;52.396;16.796;2023-01-31T11:04:28;101462.40;;;5.90;67.62
44044;BME280;29709;52.396;16.796;2023-01-31T11:07:33;101457.76;;;5.79;68.35
44044;BME280;29709;52.396;16.796;2023-01-31T11:10:49;101456.41;;;5.74;68.44
44044;BME280;29709;52.396;16.796;2023-01-31T11:14:02;101453.55;;;5.75;68.61
44044;BME280;29709;52.396;16.796;2023-01-31T11:17:16;101438.67;;;5.79;69.30
44044;BME280;29709;52.396;16.796;2023-01-31T11:20:24;101435.95;;;5.79;68.67
44044;BME280;29709;52.396;16.796;2023-01-31T11:23:30;101432.60;;;5.87;69.44
44044;BME280;29709;52.396;16.796;2023-01-31T11:26:37;101424.95;;;5.92;68.74
44044;BME280;29709;52.396;16.796;2023-01-31T11:29:47;101423.46;;;5.99;69.31
44044;BME280;29709;52.396;16.796;2023-01-31T11:32:52;101418.27;;;5.96;69.16
44044;BME280;29709;52.396;16.796;2023-01-31T11:36:21;101421.22;;;5.93;69.34
44044;BME280;29709;52.396;16.796;2023-01-31T11:39:31;101421.48;;;5.90;69.18
44044;BME280;29709;52.396;16.796;2023-01-31T11:45:58;101405.68;;;5.83;69.91
44044;BME280;29709;52.396;16.796;2023-01-31T11:49:13;101404.20;;;5.90;70.06
44044;BME280;29709;52.396;16.796;2023-01-31T11:52:21;101403.46;;;5.88;69.57
44044;BME280;29709;52.396;16.796;2023-01-31T11:55:37;101398.42;;;5.94;69.99
44044;BME280;29709;52.396;16.796;2023-01-31T11:58:42;101392.72;;;5.97;70.15
44044;BME280;29709;52.396;16.796;2023-01-31T12:01:51;101390.34;;;6.04;69.56
44044;BME280;29709;52.396;16.796;2023-01-31T12:04:55;101390.45;;;6.14;69.96
44044;BME280;29709;52.396;16.796;2023-01-31T12:08:32;101386.65;;;6.05;69.63
44044;BME280;29709;52.396;16.796;2023-01-31T12:11:49;101371.63;;;5.99;70.07
44044;BME280;29709;52.396;16.796;2023-01-31T12:14:54;101370.15;;;5.95;70.58
44044;BME280;29709;52.396;16.796;2023-01-31T12:17:59;101361.83;;;5.97;70.66
44044;BME280;29709;52.396;16.796;2023-01-31T12:27:51;101345.06;;;5.79;73.23
44044;BME280;29709;52.396;16.796;2023-01-31T12:37:26;101339.59;;;5.34;76.04
44044;BME280;29709;52.396;16.796;2023-01-31T13:03:30;101277.89;;;5.33;80.02
44044;BME280;29709;52.396;16.796;2023-01-31T13:06:40;101275.77;;;5.37;80.25
44044;BME280;29709;52.396;16.796;2023-01-31T13:09:45;101274.65;;;5.39;80.38
44044;BME280;29709;52.396;16.796;2023-01-31T13:12:52;101273.91;;;5.48;80.56
44044;BME280;29709;52.396;16.796;2023-01-31T13:19:40;101272.66;;;5.41;81.36
44044;BME280;29709;52.396;16.796;2023-01-31T13:22:52;101263.53;;;5.42;80.85
44044;BME280;29709;52.396;16.796;2023-01-31T13:32:30;101254.35;;;5.43;80.90
44044;BME280;29709;52.396;16.796;2023-01-31T13:35:40;101255.57;;;5.28;81.55
44044;BME280;29709;52.396;16.796;2023-01-31T13:38:48;101249.26;;;5.16;82.15
44044;BME280;29709;52.396;16.796;2023-01-31T13:41:54;101248.86;;;5.10;82.15
44044;BME280;29709;52.396;16.796;2023-01-31T13:45:32;101245.40;;;5.08;82.45
44044;BME280;29709;52.396;16.796;2023-01-31T13:48:48;101230.04;;;5.07;82.38
44044;BME280;29709;52.396;16.796;2023-01-31T13:53:00;101225.32;;;4.98;82.32
44044;BME280;29709;52.396;16.796;2023-01-31T13:56:09;101222.60;;;4.98;82.42
44044;BME280;29709;52.396;16.796;2023-01-31T13:59:21;101218.27;;;4.95;82.25
44044;BME280;29709;52.396;16.796;2023-01-31T14:02:26;101217.66;;;4.91;82.92
44044;BME280;29709;52.396;16.796;2023-01-31T14:08:56;101197.83;;;4.89;83.37
44044;BME280;29709;52.396;16.796;2023-01-31T14:21:51;101173.95;;;5.04;82.72
44044;BME280;29709;52.396;16.796;2023-01-31T14:24:57;101175.17;;;5.00;83.29
44044;BME280;29709;52.396;16.796;2023-01-31T14:28:02;101169.85;;;4.99;83.62
44044;BME280;29709;52.396;16.796;2023-01-31T14:31:31;101171.10;;;4.95;83.78
44044;BME280;29709;52.396;16.796;2023-01-31T14:34:34;101166.26;;;4.98;83.87
44044;BME280;29709;52.396;16.796;2023-01-31T14:54:10;101145.98;;;4.80;84.53
44044;BME280;29709;52.396;16.796;2023-01-31T14:57:14;101145.33;;;4.76;84.88
44044;BME280;29709;52.396;16.796;2023-01-31T15:00:28;101141.74;;;4.76;84.87
44044;BME280;29709;52.396;16.796;2023-01-31T15:03:46;101136.17;;;4.77;85.48
44044;BME280;29709;52.396;16.796;2023-01-31T15:06:48;101137.29;;;4.75;85.33
44044;BME280;29709;52.396;16.796;2023-01-31T15:09:53;101124.15;;;4.69;85.60
44044;BME280;29709;52.396;16.796;2023-01-31T15:12:59;101123.20;;;4.70;85.65
44044;BME280;29709;52.396;16.796;2023-01-31T15:16:33;101124.41;;;4.66;86.08
44044;BME280;29709;52.396;16.796;2023-01-31T15:19:44;101116.98;;;4.68;85.79
44044;BME280;29709;52.396;16.796;2023-01-31T15:22:49;101120.08;;;4.63;86.20
44044;BME280;29709;52.396;16.796;2023-01-31T15:25:57;101109.93;;;4.65;86.29
44044;BME280;29709;52.396;16.796;2023-01-31T15:29:03;101103.37;;;4.68;86.24
44044;BME280;29709;52.396;16.796;2023-01-31T15:32:16;101105.23;;;4.67;86.30
44044;BME280;29709;52.396;16.796;2023-01-31T15:35:33;101100.03;;;4.75;86.25
44044;BME280;29709;52.396;16.796;2023-01-31T15:39:02;101098.79;;;4.68;86.41
44044;BME280;29709;52.396;16.796;2023-01-31T15:41:47;101094.21;;;4.69;86.31
44044;BME280;29709;52.396;16.796;2023-01-31T15:45:25;101089.53;;;4.71;86.71
44044;BME280;29709;52.396;16.796;2023-01-31T15:48:28;101086.07;;;4.80;86.08
44044;BME280;29709;52.396;16.796;2023-01-31T15:51:31;101092.60;;;4.77;86.18
44044;BME280;29709;52.396;16.796;2023-01-31T15:54:35;101077.39;;;4.75;86.36
44044;BME280;29709;52.396;16.796;2023-01-31T15:57:43;101065.50;;;4.76;86.54
44044;BME280;29709;52.396;16.796;2023-01-31T16:00:53;101065.77;;;4.73;86.15
44044;BME280;29709;52.396;16.796;2023-01-31T16:03:58;101058.72;;;4.70;86.34
44044;BME280;29709;52.396;16.796;2023-01-31T16:07:28;101058.21;;;4.65;86.75
44044;BME280;29709;52.396;16.796;2023-01-31T16:10:33;101042.73;;;4.66;86.99
44044;BME280;29709;52.396;16.796;2023-01-31T16:13:39;101043.48;;;4.68;86.69
44044;BME280;29709;52.396;16.796;2023-01-31T16:16:48;101043.87;;;4.63;87.04
44044;BME280;29709;52.396;16.796;2023-01-31T16:19:53;101030.73;;;4.68;86.72
44044;BME280;29709;52.396;16.796;2023-01-31T16:22:57;101024.93;;;4.73;86.79
44044;BME280;29709;52.396;16.796;2023-01-31T16:29:17;101021.83;;;4.66;87.03
44044;BME280;29709;52.396;16.796;2023-01-31T16:32:28;101010.93;;;4.66;87.03
44044;BME280;29709;52.396;16.796;2023-01-31T16:35:38;101005.88;;;4.61;87.09
44044;BME280;29709;52.396;16.796;2023-01-31T16:39:07;101011.80;;;4.67;87.07
44044;BME280;29709;52.396;16.796;2023-01-31T16:42:22;101012.05;;;4.63;86.90
44044;BME280;29709;52.396;16.796;2023-01-31T16:45:32;101001.77;;;4.67;87.23
44044;BME280;29709;52.396;16.796;2023-01-31T16:48:38;101012.43;;;4.70;87.55
44044;BME280;29709;52.396;16.796;2023-01-31T16:51:44;100999.18;;;4.66;87.35
44044;BME280;29709;52.396;16.796;2023-01-31T16:54:50;100996.33;;;4.67;87.44
44044;BME280;29709;52.396;16.796;2023-01-31T16:57:54;100992.74;;;4.67;87.66
44044;BME280;29709;52.396;16.796;2023-01-31T17:01:26;100987.69;;;4.62;87.74
44044;BME280;29709;52.396;16.796;2023-01-31T17:04:37;100979.02;;;4.57;87.96
44044;BME280;29709;52.396;16.796;2023-01-31T17:07:43;100973.45;;;4.58;87.69
44044;BME280;29709;52.396;16.796;2023-01-31T17:10:47;100970.84;;;4.57;87.84
44044;BME280;29709;52.396;16.796;2023-01-31T17:13:51;100954.91;;;4.52;88.05
44044;BME280;29709;52.396;16.796;2023-01-31T17:16:55;100944.88;;;4.53;88.11
44044;BME280;29709;52.396;16.796;2023-01-31T17:19:58;100946.74;;;4.52;88.40
44044;BME280;29709;52.396;16.796;2023-01-31T17:23:29;100939.31;;;4.54;88.31
44044;BME280;29709;52.396;16.796;2023-01-31T17:26:33;100940.44;;;4.52;88.75
44044;BME280;29709;52.396;16.796;2023-01-31T17:29:36;100921.84;;;4.57;88.63
44044;BME280;29709;52.396;16.796;2023-01-31T17:32:39;100926.08;;;4.61;88.45
44044;BME280;29709;52.396;16.796;2023-01-31T17:35:44;100929.79;;;4.60;88.48
44044;BME280;29709;52.396;16.796;2023-01-31T17:38:53;100932.12;;;4.64;88.57
44044;BME280;29709;52.396;16.796;2023-01-31T17:41:57;100930.39;;;4.63;88.73
44044;BME280;29709;52.396;16.796;2023-01-31T17:45:00;100918.63;;;4.63;88.78
44044;BME280;29709;52.396;16.796;2023-01-31T17:48:03;100919.23;;;4.67;88.91
44044;BME280;29709;52.396;16.796;2023-01-31T17:51:32;100911.20;;;4.65;88.99
44044;BME280;29709;52.396;16.796;2023-01-31T17:54:36;100905.48;;;4.68;89.41
44044;BME280;29709;52.396;16.796;2023-01-31T17:57:39;100905.25;;;4.71;89.12
44044;BME280;29709;52.396;16.796;2023-01-31T18:00:45;100895.23;;;4.72;89.09
44044;BME280;29709;52.396;16.796;2023-01-31T18:03:49;100896.42;;;4.79;89.21
44044;BME280;29709;52.396;16.796;2023-01-31T18:06:52;100886.52;;;4.78;89.19
44044;BME280;29709;52.396;16.796;2023-01-31T18:09:56;100874.27;;;4.83;89.42
44044;BME280;29709;52.396;16.796;2023-01-31T18:12:59;100865.47;;;4.91;88.92
44044;BME280;29709;52.396;16.796;2023-01-31T18:16:15;100850.23;;;4.88;89.06
44044;BME280;29709;52.396;16.796;2023-01-31T18:19:48;100861.11;;;4.88;89.45
44044;BME280;29709;52.396;16.796;2023-01-31T18:22:51;100852.57;;;4.93;89.86
44044;BME280;29709;52.396;16.796;2023-01-31T18:25:54;100846.72;;;4.98;89.16
44044;BME280;29709;52.396;16.796;2023-01-31T18:28:58;100836.68;;;4.98;89.25
44044;BME280;29709;52.396;16.796;2023-01-31T18:32:01;100838.30;;;5.01;89.42
44044;BME280;29709;52.396;16.796;2023-01-31T18:35:09;100826.52;;;5.00;89.20
44044;BME280;29709;52.396;16.796;2023-01-31T18:38:12;100829.13;;;5.02;89.89
44044;BME280;29709;52.396;16.796;2023-01-31T18:41:18;100823.14;;;5.08;89.77
44044;BME280;29709;52.396;16.796;2023-01-31T18:44:22;100820.55;;;5.06;90.06
44044;BME280;29709;52.396;16.796;2023-01-31T18:47:50;100817.45;;;5.11;89.83
44044;BME280;29709;52.396;16.796;2023-01-31T18:50:54;100807.86;;;5.16;89.84
44044;BME280;29709;52.396;16.796;2023-01-31T18:53:57;100791.99;;;5.21;89.89
44044;BME280;29709;52.396;16.796;2023-01-31T18:57:00;100793.16;;;5.29;89.57
44044;BME280;29709;52.396;16.796;2023-01-31T19:00:04;100785.70;;;5.31;89.82
44044;BME280;29709;52.396;16.796;2023-01-31T19:03:08;100801.52;;;5.37;89.30